sensor_id;sensor_type;location;lat;lon;timestamp;P1;durP1;ratioP1;P2;durP2;ratioP2
18159;SDS011;9205;52.032;4.314;2023-07-28T00:01:18;8.20;;;3.43;;
18159;SDS011;9205;52.032;4.314;2023-07-28T00:03:45;9.67;;;3.77;;
18159;SDS011;9205;52.032;4.314;2023-07-28T00:06:12;8.33;;;3.50;;
18159;SDS011;9205;52.032;4.314;2023-07-28T00:08:41;6.47;;;3.27;;
18159;SDS011;9205;52.032;4.314;2023-07-28T00:11:09;9.83;;;3.40;;
18159;SDS011;9205;52.032;4.314;2023-07-28T00:13:37;9.23;;;3.50;;
18159;SDS011;9205;52.032;4.314;2023-07-28T00:16:04;9.87;;;3.57;;
18159;SDS011;9205;52.032;4.314;2023-07-28T00:18:32;9.13;;;4.20;;
18159;SDS011;9205;52.032;4.314;2023-07-28T00:21:00;11.73;;;3.27;;
18159;SDS011;9205;52.032;4.314;2023-07-28T00:23:27;13.27;;;3.60;;
18159;SDS011;9205;52.032;4.314;2023-07-28T00:25:56;11.70;;;3.77;;
18159;SDS011;9205;52.032;4.314;2023-07-28T00:28:23;10.57;;;3.83;;
18159;SDS011;9205;52.032;4.314;2023-07-28T00:30:52;11.07;;;4.10;;
18159;SDS011;9205;52.032;4.314;2023-07-28T00:33:19;12.90;;;3.97;;
18159;SDS011;9205;52.032;4.314;2023-07-28T00:35:46;11.77;;;3.73;;
18159;SDS011;9205;52.032;4.314;2023-07-28T00:38:13;11.57;;;3.87;;
18159;SDS011;9205;52.032;4.314;2023-07-28T00:40:40;10.27;;;3.77;;
18159;SDS011;9205;52.032;4.314;2023-07-28T00:43:09;11.47;;;3.67;;
18159;SDS011;9205;52.032;4.314;2023-07-28T00:45:36;13.87;;;3.87;;
18159;SDS011;9205;52.032;4.314;2023-07-28T00:48:05;12.70;;;4.00;;
18159;SDS011;9205;52.032;4.314;2023-07-28T00:50:39;10.87;;;3.63;;
18159;SDS011;9205;52.032;4.314;2023-07-28T00:53:07;8.77;;;3.57;;
18159;SDS011;9205;52.032;4.314;2023-07-28T00:55:35;7.70;;;3.63;;
18159;SDS011;9205;52.032;4.314;2023-07-28T00:58:03;6.83;;;3.23;;
18159;SDS011;9205;52.032;4.314;2023-07-28T01:00:32;7.37;;;3.37;;
18159;SDS011;9205;52.032;4.314;2023-07-28T01:02:59;14.20;;;3.67;;
18159;SDS011;9205;52.032;4.314;2023-07-28T01:05:28;13.00;;;4.53;;
18159;SDS011;9205;52.032;4.314;2023-07-28T01:08:09;14.53;;;4.93;;
18159;SDS011;9205;52.032;4.314;2023-07-28T01:10:46;17.13;;;4.70;;
18159;SDS011;9205;52.032;4.314;2023-07-28T01:13:13;15.53;;;4.27;;
18159;SDS011;9205;52.032;4.314;2023-07-28T01:15:42;13.00;;;3.80;;
18159;SDS011;9205;52.032;4.314;2023-07-28T01:18:09;14.23;;;3.90;;
18159;SDS011;9205;52.032;4.314;2023-07-28T01:20:38;9.03;;;3.40;;
18159;SDS011;9205;52.032;4.314;2023-07-28T01:23:13;12.43;;;3.93;;
18159;SDS011;9205;52.032;4.314;2023-07-28T01:25:55;13.03;;;4.33;;
18159;SDS011;9205;52.032;4.314;2023-07-28T01:28:33;14.60;;;3.50;;
18159;SDS011;9205;52.032;4.314;2023-07-28T01:31:01;12.90;;;3.73;;
18159;SDS011;9205;52.032;4.314;2023-07-28T01:33:30;8.53;;;3.27;;
18159;SDS011;9205;52.032;4.314;2023-07-28T01:35:58;13.20;;;3.70;;
18159;SDS011;9205;52.032;4.314;2023-07-28T01:38:26;9.10;;;3.33;;
18159;SDS011;9205;52.032;4.314;2023-07-28T01:40:54;12.63;;;3.70;;
18159;SDS011;9205;52.032;4.314;2023-07-28T01:43:22;15.90;;;4.00;;
18159;SDS011;9205;52.032;4.314;2023-07-28T01:45:50;10.27;;;3.83;;
18159;SDS011;9205;52.032;4.314;2023-07-28T01:48:18;10.83;;;3.67;;
18159;SDS011;9205;52.032;4.314;2023-07-28T01:50:45;9.93;;;3.47;;
18159;SDS011;9205;52.032;4.314;2023-07-28T01:53:12;10.07;;;3.70;;
18159;SDS011;9205;52.032;4.314;2023-07-28T01:55:40;10.23;;;3.70;;
18159;SDS011;9205;52.032;4.314;2023-07-28T01:58:10;16.87;;;3.90;;
18159;SDS011;9205;52.032;4.314;2023-07-28T02:00:37;12.60;;;3.57;;
18159;SDS011;9205;52.032;4.314;2023-07-28T02:03:06;10.53;;;4.00;;
18159;SDS011;9205;52.032;4.314;2023-07-28T02:05:33;13.67;;;3.67;;
18159;SDS011;9205;52.032;4.314;2023-07-28T02:08:01;13.33;;;3.90;;
18159;SDS011;9205;52.032;4.314;2023-07-28T02:10:28;11.37;;;3.93;;
18159;SDS011;9205;52.032;4.314;2023-07-28T02:12:57;13.80;;;4.10;;
18159;SDS011;9205;52.032;4.314;2023-07-28T02:15:25;11.27;;;3.67;;
18159;SDS011;9205;52.032;4.314;2023-07-28T02:17:52;11.73;;;4.20;;
18159;SDS011;9205;52.032;4.314;2023-07-28T02:20:21;10.47;;;4.00;;
18159;SDS011;9205;52.032;4.314;2023-07-28T02:22:48;17.93;;;4.40;;
18159;SDS011;9205;52.032;4.314;2023-07-28T02:25:15;10.70;;;4.33;;
18159;SDS011;9205;52.032;4.314;2023-07-28T02:27:43;11.63;;;3.80;;
18159;SDS011;9205;52.032;4.314;2023-07-28T02:30:10;12.90;;;3.60;;
18159;SDS011;9205;52.032;4.314;2023-07-28T02:32:38;15.60;;;3.83;;
18159;SDS011;9205;52.032;4.314;2023-07-28T02:35:06;9.47;;;3.83;;
18159;SDS011;9205;52.032;4.314;2023-07-28T02:37:37;13.90;;;4.07;;
18159;SDS011;9205;52.032;4.314;2023-07-28T02:40:05;14.90;;;3.93;;
18159;SDS011;9205;52.032;4.314;2023-07-28T02:42:38;12.50;;;4.20;;
18159;SDS011;9205;52.032;4.314;2023-07-28T02:45:06;12.80;;;3.77;;
18159;SDS011;9205;52.032;4.314;2023-07-28T02:47:35;11.17;;;4.20;;
18159;SDS011;9205;52.032;4.314;2023-07-28T02:50:04;15.60;;;4.00;;
18159;SDS011;9205;52.032;4.314;2023-07-28T02:52:32;14.37;;;4.03;;
18159;SDS011;9205;52.032;4.314;2023-07-28T02:55:01;12.53;;;4.00;;
18159;SDS011;9205;52.032;4.314;2023-07-28T02:57:30;10.83;;;4.20;;
18159;SDS011;9205;52.032;4.314;2023-07-28T03:00:00;15.40;;;3.83;;
18159;SDS011;9205;52.032;4.314;2023-07-28T03:02:31;12.17;;;4.20;;
18159;SDS011;9205;52.032;4.314;2023-07-28T03:04:58;12.90;;;4.13;;
18159;SDS011;9205;52.032;4.314;2023-07-28T03:07:52;11.13;;;3.80;;
18159;SDS011;9205;52.032;4.314;2023-07-28T03:10:21;11.53;;;4.20;;
18159;SDS011;9205;52.032;4.314;2023-07-28T03:12:48;15.37;;;4.27;;
18159;SDS011;9205;52.032;4.314;2023-07-28T03:15:16;11.83;;;4.20;;
18159;SDS011;9205;52.032;4.314;2023-07-28T03:17:43;12.33;;;4.40;;
18159;SDS011;9205;52.032;4.314;2023-07-28T03:20:11;15.70;;;4.60;;
18159;SDS011;9205;52.032;4.314;2023-07-28T03:22:38;12.07;;;4.23;;
18159;SDS011;9205;52.032;4.314;2023-07-28T03:25:05;15.73;;;4.20;;
18159;SDS011;9205;52.032;4.314;2023-07-28T03:27:35;10.07;;;4.20;;
18159;SDS011;9205;52.032;4.314;2023-07-28T03:30:02;10.10;;;4.67;;
18159;SDS011;9205;52.032;4.314;2023-07-28T03:32:32;9.63;;;4.23;;
18159;SDS011;9205;52.032;4.314;2023-07-28T03:34:59;12.17;;;3.90;;
18159;SDS011;9205;52.032;4.314;2023-07-28T03:37:28;12.40;;;3.93;;
18159;SDS011;9205;52.032;4.314;2023-07-28T03:39:56;13.13;;;4.67;;
18159;SDS011;9205;52.032;4.314;2023-07-28T03:42:34;10.80;;;4.43;;
18159;SDS011;9205;52.032;4.314;2023-07-28T03:45:02;12.23;;;4.20;;
18159;SDS011;9205;52.032;4.314;2023-07-28T03:47:29;10.43;;;4.00;;
18159;SDS011;9205;52.032;4.314;2023-07-28T03:49:57;13.50;;;3.93;;
18159;SDS011;9205;52.032;4.314;2023-07-28T03:52:24;17.07;;;4.67;;
18159;SDS011;9205;52.032;4.314;2023-07-28T03:54:52;11.13;;;4.07;;
18159;SDS011;9205;52.032;4.314;2023-07-28T03:57:19;12.23;;;4.37;;
18159;SDS011;9205;52.032;4.314;2023-07-28T03:59:48;11.93;;;4.13;;
18159;SDS011;9205;52.032;4.314;2023-07-28T04:02:15;8.70;;;4.30;;
18159;SDS011;9205;52.032;4.314;2023-07-28T04:04:42;10.27;;;4.17;;
18159;SDS011;9205;52.032;4.314;2023-07-28T04:07:10;11.03;;;4.30;;
18159;SDS011;9205;52.032;4.314;2023-07-28T04:09:37;13.20;;;4.47;;
18159;SDS011;9205;52.032;4.314;2023-07-28T04:12:05;8.33;;;3.77;;
18159;SDS011;9205;52.032;4.314;2023-07-28T04:14:33;16.63;;;4.47;;
18159;SDS011;9205;52.032;4.314;2023-07-28T04:17:03;13.90;;;4.57;;
18159;SDS011;9205;52.032;4.314;2023-07-28T04:19:32;9.27;;;3.57;;
18159;SDS011;9205;52.032;4.314;2023-07-28T04:22:02;9.90;;;3.60;;
18159;SDS011;9205;52.032;4.314;2023-07-28T04:24:32;10.83;;;4.20;;
18159;SDS011;9205;52.032;4.314;2023-07-28T04:27:00;11.10;;;4.17;;
18159;SDS011;9205;52.032;4.314;2023-07-28T04:29:27;10.70;;;3.97;;
18159;SDS011;9205;52.032;4.314;2023-07-28T04:31:55;11.53;;;4.30;;
18159;SDS011;9205;52.032;4.314;2023-07-28T04:34:34;12.53;;;5.10;;
18159;SDS011;9205;52.032;4.314;2023-07-28T04:37:07;12.23;;;4.47;;
18159;SDS011;9205;52.032;4.314;2023-07-28T04:39:52;13.60;;;4.17;;
18159;SDS011;9205;52.032;4.314;2023-07-28T04:42:19;11.13;;;4.17;;
18159;SDS011;9205;52.032;4.314;2023-07-28T04:44:50;13.90;;;4.00;;
18159;SDS011;9205;52.032;4.314;2023-07-28T04:47:18;11.40;;;4.47;;
18159;SDS011;9205;52.032;4.314;2023-07-28T04:49:47;11.27;;;3.93;;
18159;SDS011;9205;52.032;4.314;2023-07-28T04:52:34;9.77;;;4.13;;
18159;SDS011;9205;52.032;4.314;2023-07-28T04:55:17;9.80;;;4.30;;
18159;SDS011;9205;52.032;4.314;2023-07-28T04:57:44;9.07;;;3.80;;
18159;SDS011;9205;52.032;4.314;2023-07-28T05:00:12;9.37;;;4.13;;
18159;SDS011;9205;52.032;4.314;2023-07-28T05:02:39;17.03;;;4.23;;
18159;SDS011;9205;52.032;4.314;2023-07-28T05:05:08;7.63;;;4.03;;
18159;SDS011;9205;52.032;4.314;2023-07-28T05:07:36;11.17;;;4.23;;
18159;SDS011;9205;52.032;4.314;2023-07-28T05:10:04;11.00;;;4.47;;
18159;SDS011;9205;52.032;4.314;2023-07-28T05:12:32;12.50;;;5.00;;
18159;SDS011;9205;52.032;4.314;2023-07-28T05:14:59;13.73;;;4.83;;
18159;SDS011;9205;52.032;4.314;2023-07-28T05:17:27;10.00;;;4.77;;
18159;SDS011;9205;52.032;4.314;2023-07-28T05:20:21;8.47;;;4.33;;
18159;SDS011;9205;52.032;4.314;2023-07-28T05:22:55;6.83;;;4.50;;
18159;SDS011;9205;52.032;4.314;2023-07-28T05:25:26;13.10;;;4.50;;
18159;SDS011;9205;52.032;4.314;2023-07-28T05:27:53;8.40;;;4.67;;
18159;SDS011;9205;52.032;4.314;2023-07-28T05:30:20;12.90;;;4.43;;
18159;SDS011;9205;52.032;4.314;2023-07-28T05:32:48;9.90;;;4.60;;
18159;SDS011;9205;52.032;4.314;2023-07-28T05:35:23;9.43;;;4.53;;
18159;SDS011;9205;52.032;4.314;2023-07-28T05:37:51;10.07;;;4.40;;
18159;SDS011;9205;52.032;4.314;2023-07-28T05:40:20;11.47;;;4.60;;
18159;SDS011;9205;52.032;4.314;2023-07-28T05:42:47;13.13;;;4.20;;
18159;SDS011;9205;52.032;4.314;2023-07-28T05:45:15;11.30;;;4.57;;
18159;SDS011;9205;52.032;4.314;2023-07-28T05:47:43;9.00;;;4.87;;
18159;SDS011;9205;52.032;4.314;2023-07-28T05:50:10;13.33;;;4.53;;
18159;SDS011;9205;52.032;4.314;2023-07-28T05:52:39;13.50;;;5.47;;
18159;SDS011;9205;52.032;4.314;2023-07-28T05:55:07;13.57;;;5.00;;
18159;SDS011;9205;52.032;4.314;2023-07-28T05:57:36;9.03;;;4.90;;
18159;SDS011;9205;52.032;4.314;2023-07-28T06:00:06;11.57;;;5.03;;
18159;SDS011;9205;52.032;4.314;2023-07-28T06:02:39;11.37;;;4.93;;
18159;SDS011;9205;52.032;4.314;2023-07-28T06:05:09;12.00;;;4.33;;
18159;SDS011;9205;52.032;4.314;2023-07-28T06:07:37;6.33;;;4.13;;
18159;SDS011;9205;52.032;4.314;2023-07-28T06:10:06;8.97;;;5.00;;
18159;SDS011;9205;52.032;4.314;2023-07-28T06:12:34;10.17;;;4.83;;
18159;SDS011;9205;52.032;4.314;2023-07-28T06:15:02;9.93;;;4.77;;
18159;SDS011;9205;52.032;4.314;2023-07-28T06:17:30;10.03;;;4.50;;
18159;SDS011;9205;52.032;4.314;2023-07-28T06:19:57;9.10;;;4.57;;
18159;SDS011;9205;52.032;4.314;2023-07-28T06:22:25;10.03;;;4.83;;
18159;SDS011;9205;52.032;4.314;2023-07-28T06:24:52;14.90;;;4.87;;
18159;SDS011;9205;52.032;4.314;2023-07-28T06:27:21;9.00;;;4.40;;
18159;SDS011;9205;52.032;4.314;2023-07-28T06:29:48;9.03;;;4.70;;
18159;SDS011;9205;52.032;4.314;2023-07-28T06:32:16;9.43;;;4.47;;
18159;SDS011;9205;52.032;4.314;2023-07-28T06:34:43;10.00;;;4.17;;
18159;SDS011;9205;52.032;4.314;2023-07-28T06:37:10;8.67;;;3.90;;
18159;SDS011;9205;52.032;4.314;2023-07-28T06:39:38;10.63;;;4.30;;
18159;SDS011;9205;52.032;4.314;2023-07-28T06:42:06;8.83;;;4.30;;
18159;SDS011;9205;52.032;4.314;2023-07-28T06:44:38;12.17;;;4.50;;
18159;SDS011;9205;52.032;4.314;2023-07-28T06:47:06;8.57;;;4.03;;
18159;SDS011;9205;52.032;4.314;2023-07-28T06:49:33;10.33;;;4.17;;
18159;SDS011;9205;52.032;4.314;2023-07-28T06:52:01;8.50;;;4.10;;
18159;SDS011;9205;52.032;4.314;2023-07-28T06:54:28;6.00;;;4.10;;
18159;SDS011;9205;52.032;4.314;2023-07-28T06:56:55;6.17;;;4.00;;
18159;SDS011;9205;52.032;4.314;2023-07-28T06:59:22;9.40;;;3.87;;
18159;SDS011;9205;52.032;4.314;2023-07-28T07:01:51;8.33;;;3.67;;
18159;SDS011;9205;52.032;4.314;2023-07-28T07:04:19;10.40;;;3.70;;
18159;SDS011;9205;52.032;4.314;2023-07-28T07:06:46;10.20;;;3.97;;
18159;SDS011;9205;52.032;4.314;2023-07-28T07:09:14;10.30;;;4.17;;
18159;SDS011;9205;52.032;4.314;2023-07-28T07:11:42;13.70;;;3.90;;
18159;SDS011;9205;52.032;4.314;2023-07-28T07:14:09;8.40;;;4.10;;
18159;SDS011;9205;52.032;4.314;2023-07-28T07:16:37;7.10;;;3.60;;
18159;SDS011;9205;52.032;4.314;2023-07-28T07:19:05;8.83;;;4.03;;
18159;SDS011;9205;52.032;4.314;2023-07-28T07:21:34;7.17;;;3.53;;
18159;SDS011;9205;52.032;4.314;2023-07-28T07:24:02;6.07;;;3.70;;
18159;SDS011;9205;52.032;4.314;2023-07-28T07:26:31;7.20;;;3.80;;
18159;SDS011;9205;52.032;4.314;2023-07-28T07:28:58;6.83;;;3.80;;
18159;SDS011;9205;52.032;4.314;2023-07-28T07:31:26;7.93;;;3.80;;
18159;SDS011;9205;52.032;4.314;2023-07-28T07:33:54;4.77;;;3.30;;
18159;SDS011;9205;52.032;4.314;2023-07-28T07:36:22;7.97;;;3.83;;
18159;SDS011;9205;52.032;4.314;2023-07-28T07:38:50;7.27;;;3.17;;
18159;SDS011;9205;52.032;4.314;2023-07-28T07:41:21;7.27;;;3.27;;
18159;SDS011;9205;52.032;4.314;2023-07-28T07:43:49;8.50;;;4.07;;
18159;SDS011;9205;52.032;4.314;2023-07-28T07:46:21;6.93;;;3.90;;
18159;SDS011;9205;52.032;4.314;2023-07-28T07:48:49;7.53;;;3.87;;
18159;SDS011;9205;52.032;4.314;2023-07-28T07:51:18;7.40;;;3.83;;
18159;SDS011;9205;52.032;4.314;2023-07-28T07:53:49;6.67;;;4.47;;
18159;SDS011;9205;52.032;4.314;2023-07-28T07:56:17;6.97;;;3.50;;
18159;SDS011;9205;52.032;4.314;2023-07-28T07:58:44;8.57;;;3.67;;
18159;SDS011;9205;52.032;4.314;2023-07-28T08:01:11;5.03;;;3.07;;
18159;SDS011;9205;52.032;4.314;2023-07-28T08:03:39;4.83;;;3.20;;
18159;SDS011;9205;52.032;4.314;2023-07-28T08:06:07;5.67;;;3.30;;
18159;SDS011;9205;52.032;4.314;2023-07-28T08:08:36;6.67;;;3.50;;
18159;SDS011;9205;52.032;4.314;2023-07-28T08:11:05;8.70;;;3.43;;
18159;SDS011;9205;52.032;4.314;2023-07-28T08:13:33;5.13;;;3.20;;
18159;SDS011;9205;52.032;4.314;2023-07-28T08:16:00;8.13;;;3.73;;
18159;SDS011;9205;52.032;4.314;2023-07-28T08:18:28;5.57;;;3.47;;
18159;SDS011;9205;52.032;4.314;2023-07-28T08:20:55;6.13;;;3.30;;
18159;SDS011;9205;52.032;4.314;2023-07-28T08:23:22;10.23;;;3.33;;
18159;SDS011;9205;52.032;4.314;2023-07-28T08:25:49;6.07;;;2.93;;
18159;SDS011;9205;52.032;4.314;2023-07-28T08:28:18;6.63;;;3.70;;
18159;SDS011;9205;52.032;4.314;2023-07-28T08:30:52;5.07;;;3.00;;
18159;SDS011;9205;52.032;4.314;2023-07-28T08:33:21;6.00;;;3.23;;
18159;SDS011;9205;52.032;4.314;2023-07-28T08:35:49;4.00;;;3.20;;
18159;SDS011;9205;52.032;4.314;2023-07-28T08:38:16;4.97;;;3.20;;
18159;SDS011;9205;52.032;4.314;2023-07-28T08:40:43;8.97;;;3.60;;
18159;SDS011;9205;52.032;4.314;2023-07-28T08:43:11;5.90;;;3.60;;
18159;SDS011;9205;52.032;4.314;2023-07-28T08:45:40;9.83;;;3.20;;
18159;SDS011;9205;52.032;4.314;2023-07-28T08:48:07;8.63;;;3.83;;
18159;SDS011;9205;52.032;4.314;2023-07-28T08:50:35;6.17;;;3.23;;
18159;SDS011;9205;52.032;4.314;2023-07-28T08:53:02;9.37;;;3.70;;
18159;SDS011;9205;52.032;4.314;2023-07-28T08:55:30;7.50;;;3.97;;
18159;SDS011;9205;52.032;4.314;2023-07-28T09:00:42;9.57;;;3.73;;
18159;SDS011;9205;52.032;4.314;2023-07-28T09:03:14;8.07;;;3.67;;
18159;SDS011;9205;52.032;4.314;2023-07-28T09:05:43;8.83;;;3.93;;
18159;SDS011;9205;52.032;4.314;2023-07-28T09:08:11;9.80;;;3.60;;
18159;SDS011;9205;52.032;4.314;2023-07-28T09:10:42;8.67;;;3.90;;
18159;SDS011;9205;52.032;4.314;2023-07-28T09:13:12;11.57;;;3.77;;
18159;SDS011;9205;52.032;4.314;2023-07-28T09:15:40;10.30;;;4.07;;
18159;SDS011;9205;52.032;4.314;2023-07-28T09:18:09;13.53;;;4.37;;
18159;SDS011;9205;52.032;4.314;2023-07-28T09:20:39;7.33;;;3.90;;
18159;SDS011;9205;52.032;4.314;2023-07-28T09:23:08;10.40;;;3.70;;
18159;SDS011;9205;52.032;4.314;2023-07-28T09:25:37;9.27;;;3.67;;
18159;SDS011;9205;52.032;4.314;2023-07-28T09:28:05;9.57;;;3.57;;
18159;SDS011;9205;52.032;4.314;2023-07-28T09:30:45;7.27;;;3.47;;
18159;SDS011;9205;52.032;4.314;2023-07-28T09:33:21;8.97;;;4.13;;
18159;SDS011;9205;52.032;4.314;2023-07-28T09:35:56;9.23;;;3.83;;
18159;SDS011;9205;52.032;4.314;2023-07-28T09:38:33;11.23;;;3.50;;
18159;SDS011;9205;52.032;4.314;2023-07-28T09:41:05;8.90;;;3.70;;
18159;SDS011;9205;52.032;4.314;2023-07-28T09:43:35;7.60;;;3.63;;
18159;SDS011;9205;52.032;4.314;2023-07-28T09:46:03;10.33;;;4.00;;
18159;SDS011;9205;52.032;4.314;2023-07-28T09:48:34;9.90;;;3.20;;
18159;SDS011;9205;52.032;4.314;2023-07-28T09:51:06;8.13;;;3.60;;
18159;SDS011;9205;52.032;4.314;2023-07-28T09:53:40;7.87;;;3.57;;
18159;SDS011;9205;52.032;4.314;2023-07-28T09:56:14;11.47;;;3.90;;
18159;SDS011;9205;52.032;4.314;2023-07-28T09:58:44;9.83;;;3.50;;
18159;SDS011;9205;52.032;4.314;2023-07-28T10:01:19;6.30;;;3.10;;
18159;SDS011;9205;52.032;4.314;2023-07-28T10:03:48;8.07;;;3.43;;
18159;SDS011;9205;52.032;4.314;2023-07-28T10:06:17;9.27;;;3.43;;
18159;SDS011;9205;52.032;4.314;2023-07-28T10:08:47;9.70;;;4.03;;
18159;SDS011;9205;52.032;4.314;2023-07-28T10:11:15;6.57;;;2.90;;
18159;SDS011;9205;52.032;4.314;2023-07-28T10:13:44;9.50;;;2.93;;
18159;SDS011;9205;52.032;4.314;2023-07-28T10:16:12;9.17;;;2.80;;
18159;SDS011;9205;52.032;4.314;2023-07-28T10:18:40;7.37;;;3.10;;
18159;SDS011;9205;52.032;4.314;2023-07-28T10:21:10;6.00;;;3.10;;
18159;SDS011;9205;52.032;4.314;2023-07-28T10:23:42;5.97;;;2.80;;
18159;SDS011;9205;52.032;4.314;2023-07-28T10:26:12;4.43;;;2.70;;
18159;SDS011;9205;52.032;4.314;2023-07-28T10:28:40;6.37;;;2.70;;
18159;SDS011;9205;52.032;4.314;2023-07-28T10:31:08;3.80;;;2.83;;
18159;SDS011;9205;52.032;4.314;2023-07-28T10:33:37;4.97;;;2.37;;
18159;SDS011;9205;52.032;4.314;2023-07-28T10:36:12;4.80;;;2.60;;
18159;SDS011;9205;52.032;4.314;2023-07-28T10:38:41;5.23;;;2.80;;
18159;SDS011;9205;52.032;4.314;2023-07-28T10:41:14;4.33;;;2.63;;
18159;SDS011;9205;52.032;4.314;2023-07-28T10:43:44;5.50;;;2.57;;
18159;SDS011;9205;52.032;4.314;2023-07-28T10:46:13;6.97;;;2.40;;
18159;SDS011;9205;52.032;4.314;2023-07-28T10:48:43;4.37;;;2.43;;
18159;SDS011;9205;52.032;4.314;2023-07-28T10:51:20;5.65;;;2.80;;
18159;SDS011;9205;52.032;4.314;2023-07-28T10:53:50;4.83;;;2.60;;
18159;SDS011;9205;52.032;4.314;2023-07-28T10:56:18;4.50;;;2.60;;
18159;SDS011;9205;52.032;4.314;2023-07-28T10:58:45;4.10;;;2.63;;
18159;SDS011;9205;52.032;4.314;2023-07-28T11:01:14;8.00;;;2.50;;
18159;SDS011;9205;52.032;4.314;2023-07-28T11:03:42;4.30;;;2.30;;
18159;SDS011;9205;52.032;4.314;2023-07-28T11:06:09;5.10;;;2.60;;
18159;SDS011;9205;52.032;4.314;2023-07-28T11:08:38;7.17;;;2.20;;
18159;SDS011;9205;52.032;4.314;2023-07-28T11:11:05;8.43;;;2.80;;
18159;SDS011;9205;52.032;4.314;2023-07-28T11:13:33;4.27;;;2.00;;
18159;SDS011;9205;52.032;4.314;2023-07-28T11:16:00;5.15;;;2.78;;
18159;SDS011;9205;52.032;4.314;2023-07-28T11:18:29;3.73;;;2.17;;
18159;SDS011;9205;52.032;4.314;2023-07-28T11:20:57;3.80;;;2.37;;
18159;SDS011;9205;52.032;4.314;2023-07-28T11:23:24;6.27;;;2.40;;
18159;SDS011;9205;52.032;4.314;2023-07-28T11:25:53;5.20;;;2.20;;
18159;SDS011;9205;52.032;4.314;2023-07-28T11:28:21;5.03;;;2.53;;
18159;SDS011;9205;52.032;4.314;2023-07-28T11:30:50;6.00;;;2.37;;
18159;SDS011;9205;52.032;4.314;2023-07-28T11:33:17;5.10;;;2.40;;
18159;SDS011;9205;52.032;4.314;2023-07-28T11:35:46;4.27;;;2.67;;
18159;SDS011;9205;52.032;4.314;2023-07-28T11:38:14;4.33;;;2.27;;
18159;SDS011;9205;52.032;4.314;2023-07-28T11:40:42;5.30;;;2.60;;
18159;SDS011;9205;52.032;4.314;2023-07-28T11:43:11;6.90;;;3.50;;
18159;SDS011;9205;52.032;4.314;2023-07-28T11:45:39;7.00;;;3.00;;
18159;SDS011;9205;52.032;4.314;2023-07-28T11:48:06;6.47;;;3.30;;
18159;SDS011;9205;52.032;4.314;2023-07-28T11:50:35;7.03;;;3.20;;
18159;SDS011;9205;52.032;4.314;2023-07-28T11:53:06;5.40;;;3.13;;
18159;SDS011;9205;52.032;4.314;2023-07-28T11:55:35;7.40;;;3.43;;
18159;SDS011;9205;52.032;4.314;2023-07-28T11:58:03;8.48;;;3.65;;
18159;SDS011;9205;52.032;4.314;2023-07-28T12:00:37;8.73;;;3.72;;
18159;SDS011;9205;52.032;4.314;2023-07-28T12:03:08;8.00;;;3.63;;
18159;SDS011;9205;52.032;4.314;2023-07-28T12:05:37;8.63;;;3.47;;
18159;SDS011;9205;52.032;4.314;2023-07-28T12:08:07;7.87;;;3.60;;
18159;SDS011;9205;52.032;4.314;2023-07-28T12:10:34;6.33;;;3.60;;
18159;SDS011;9205;52.032;4.314;2023-07-28T12:13:06;8.00;;;3.47;;
18159;SDS011;9205;52.032;4.314;2023-07-28T12:15:40;6.80;;;3.50;;
18159;SDS011;9205;52.032;4.314;2023-07-28T12:18:08;6.53;;;3.33;;
18159;SDS011;9205;52.032;4.314;2023-07-28T12:20:39;6.10;;;3.23;;
18159;SDS011;9205;52.032;4.314;2023-07-28T12:23:11;4.00;;;2.97;;
18159;SDS011;9205;52.032;4.314;2023-07-28T12:25:40;4.37;;;2.60;;
18159;SDS011;9205;52.032;4.314;2023-07-28T12:28:08;4.68;;;2.60;;
18159;SDS011;9205;52.032;4.314;2023-07-28T12:30:37;4.00;;;2.70;;
18159;SDS011;9205;52.032;4.314;2023-07-28T12:33:05;4.17;;;2.40;;
18159;SDS011;9205;52.032;4.314;2023-07-28T12:35:34;6.83;;;2.00;;
18159;SDS011;9205;52.032;4.314;2023-07-28T12:38:01;4.22;;;2.55;;
18159;SDS011;9205;52.032;4.314;2023-07-28T12:40:30;5.63;;;2.60;;
18159;SDS011;9205;52.032;4.314;2023-07-28T12:43:00;6.38;;;2.60;;
18159;SDS011;9205;52.032;4.314;2023-07-28T12:45:30;4.90;;;2.65;;
18159;SDS011;9205;52.032;4.314;2023-07-28T12:47:58;5.10;;;2.88;;
18159;SDS011;9205;52.032;4.314;2023-07-28T12:50:26;4.10;;;2.70;;
18159;SDS011;9205;52.032;4.314;2023-07-28T12:52:54;5.38;;;3.10;;
18159;SDS011;9205;52.032;4.314;2023-07-28T12:55:21;4.93;;;3.07;;
18159;SDS011;9205;52.032;4.314;2023-07-28T12:57:48;4.55;;;3.00;;
18159;SDS011;9205;52.032;4.314;2023-07-28T13:00:16;6.15;;;3.35;;
18159;SDS011;9205;52.032;4.314;2023-07-28T13:02:44;3.33;;;2.30;;
18159;SDS011;9205;52.032;4.314;2023-07-28T13:05:13;3.80;;;2.53;;
18159;SDS011;9205;52.032;4.314;2023-07-28T13:07:42;3.78;;;2.40;;
18159;SDS011;9205;52.032;4.314;2023-07-28T13:10:10;4.57;;;2.60;;
18159;SDS011;9205;52.032;4.314;2023-07-28T13:12:38;3.57;;;2.80;;
18159;SDS011;9205;52.032;4.314;2023-07-28T13:15:05;4.05;;;2.30;;
18159;SDS011;9205;52.032;4.314;2023-07-28T13:17:34;3.03;;;1.92;;
18159;SDS011;9205;52.032;4.314;2023-07-28T13:20:02;2.87;;;2.00;;
18159;SDS011;9205;52.032;4.314;2023-07-28T13:22:31;2.10;;;1.60;;
18159;SDS011;9205;52.032;4.314;2023-07-28T13:24:59;1.73;;;1.42;;
18159;SDS011;9205;52.032;4.314;2023-07-28T13:27:26;2.23;;;1.50;;
18159;SDS011;9205;52.032;4.314;2023-07-28T13:29:54;2.10;;;1.37;;
18159;SDS011;9205;52.032;4.314;2023-07-28T13:32:23;3.15;;;1.52;;
18159;SDS011;9205;52.032;4.314;2023-07-28T13:34:52;3.93;;;1.30;;
18159;SDS011;9205;52.032;4.314;2023-07-28T13:37:19;3.15;;;1.52;;
18159;SDS011;9205;52.032;4.314;2023-07-28T13:39:48;1.60;;;1.50;;
18159;SDS011;9205;52.032;4.314;2023-07-28T13:42:16;2.65;;;1.60;;
18159;SDS011;9205;52.032;4.314;2023-07-28T13:44:44;2.05;;;1.38;;
18159;SDS011;9205;52.032;4.314;2023-07-28T13:47:11;2.75;;;1.67;;
18159;SDS011;9205;52.032;4.314;2023-07-28T13:49:38;2.90;;;1.80;;
18159;SDS011;9205;52.032;4.314;2023-07-28T13:52:06;3.45;;;1.77;;
18159;SDS011;9205;52.032;4.314;2023-07-28T13:54:34;2.67;;;1.80;;
18159;SDS011;9205;52.032;4.314;2023-07-28T13:57:02;3.20;;;2.03;;
18159;SDS011;9205;52.032;4.314;2023-07-28T13:59:31;3.35;;;2.28;;
18159;SDS011;9205;52.032;4.314;2023-07-28T14:01:58;4.03;;;2.42;;
18159;SDS011;9205;52.032;4.314;2023-07-28T14:04:25;2.97;;;2.20;;
18159;SDS011;9205;52.032;4.314;2023-07-28T14:06:53;2.83;;;2.00;;
18159;SDS011;9205;52.032;4.314;2023-07-28T14:09:20;2.67;;;2.15;;
18159;SDS011;9205;52.032;4.314;2023-07-28T14:11:50;2.03;;;1.83;;
18159;SDS011;9205;52.032;4.314;2023-07-28T14:14:18;3.13;;;2.13;;
18159;SDS011;9205;52.032;4.314;2023-07-28T14:16:46;3.08;;;1.95;;
18159;SDS011;9205;52.032;4.314;2023-07-28T14:19:13;2.95;;;1.92;;
18159;SDS011;9205;52.032;4.314;2023-07-28T14:21:40;3.30;;;2.25;;
18159;SDS011;9205;52.032;4.314;2023-07-28T14:24:08;3.05;;;2.40;;
18159;SDS011;9205;52.032;4.314;2023-07-28T14:26:36;5.30;;;2.70;;
18159;SDS011;9205;52.032;4.314;2023-07-28T14:29:03;5.93;;;3.57;;
18159;SDS011;9205;52.032;4.314;2023-07-28T14:31:32;5.90;;;3.73;;
18159;SDS011;9205;52.032;4.314;2023-07-28T14:33:59;6.93;;;4.03;;
18159;SDS011;9205;52.032;4.314;2023-07-28T14:36:27;6.17;;;3.70;;
18159;SDS011;9205;52.032;4.314;2023-07-28T14:38:54;6.30;;;4.20;;
18159;SDS011;9205;52.032;4.314;2023-07-28T14:41:21;5.63;;;3.40;;
18159;SDS011;9205;52.032;4.314;2023-07-28T14:43:50;7.80;;;3.80;;
18159;SDS011;9205;52.032;4.314;2023-07-28T14:46:17;5.40;;;3.20;;
18159;SDS011;9205;52.032;4.314;2023-07-28T14:48:48;7.45;;;4.15;;
18159;SDS011;9205;52.032;4.314;2023-07-28T14:51:16;5.87;;;4.10;;
18159;SDS011;9205;52.032;4.314;2023-07-28T14:53:43;7.63;;;3.87;;
18159;SDS011;9205;52.032;4.314;2023-07-28T14:56:12;6.17;;;3.83;;
18159;SDS011;9205;52.032;4.314;2023-07-28T14:58:40;6.57;;;3.80;;
18159;SDS011;9205;52.032;4.314;2023-07-28T15:01:09;7.90;;;3.93;;
18159;SDS011;9205;52.032;4.314;2023-07-28T15:03:37;5.20;;;3.00;;
18159;SDS011;9205;52.032;4.314;2023-07-28T15:06:06;5.33;;;3.20;;
18159;SDS011;9205;52.032;4.314;2023-07-28T15:08:34;7.93;;;2.83;;